Time;durP1;ratioP1;P1;durP2;ratioP2;P2;SDS_P1;SDS_P2;PMS_P1;PMS_P2;Temp;Humidity;BMP_temperature;BMP_pressure;BME280_temperature;BME280_humidity;BME280_pressure;Samples;Min_cycle;Max_cycle;Signal;HPM_P1;HPM_P2
2022/06/03 00:01:06;;;;;;;6.45;4.22;;;15.30;99.90;;;;;;5083766;28;20093;-69
2022/06/03 00:03:47;;;;;;;7.88;4.57;;;15.30;99.90;;;;;;5093206;28;20044;-68
2022/06/03 00:06:30;;;;;;;4.85;3.42;;;15.20;99.90;;;;;;5091751;28;20055;-70
2022/06/03 00:09:23;;;;;;;4.72;3.20;;;15.20;99.90;;;;;;5084382;28;20496;-69
2022/06/03 00:12:28;;;;;;;4.38;3.28;;;15.20;99.90;;;;;;5042851;28;20051;-62
2022/06/03 00:15:27;;;;;;;4.53;3.38;;;15.10;99.90;;;;;;5070481;28;20045;-64
2022/06/03 00:18:48;;;;;;;5.32;3.88;;;15.10;99.90;;;;;;5064518;28;20086;-65
2022/06/03 00:21:55;;;;;;;5.43;3.60;;;15.10;99.90;;;;;;5074381;28;20056;-64
2022/06/03 00:24:44;;;;;;;4.28;3.13;;;15.10;99.90;;;;;;5052337;28;20049;-63
2022/06/03 00:27:35;;;;;;;3.55;3.00;;;15.10;99.90;;;;;;5052603;28;20052;-64
2022/06/03 00:30:37;;;;;;;6.18;3.60;;;15.10;99.90;;;;;;5060290;28;20036;-63
2022/06/03 00:33:16;;;;;;;4.95;3.33;;;15.10;99.90;;;;;;5074567;28;20048;-64
2022/06/03 00:36:04;;;;;;;4.15;3.22;;;15.20;99.90;;;;;;5092359;28;20040;-63
2022/06/03 00:38:37;;;;;;;7.82;3.28;;;15.20;99.90;;;;;;5087220;28;20082;-64
2022/06/03 00:41:25;;;;;;;4.18;3.10;;;15.10;99.90;;;;;;5072624;28;20044;-63
2022/06/03 00:44:10;;;;;;;3.93;3.13;;;15.10;99.90;;;;;;5072307;28;20409;-64
2022/06/03 00:46:51;;;;;;;5.78;3.38;;;15.10;99.90;;;;;;5071938;28;20286;-64
2022/06/03 00:49:43;;;;;;;4.47;3.30;;;15.10;99.90;;;;;;5077072;28;20043;-63
2022/06/03 00:52:28;;;;;;;4.50;3.17;;;15.10;99.90;;;;;;5078951;28;20047;-64
2022/06/03 00:55:23;;;;;;;5.82;3.47;;;15.10;99.90;;;;;;5091976;28;20040;-64
2022/06/03 00:58:33;;;;;;;7.30;4.10;;;15.10;99.90;;;;;;5080806;28;20044;-64
2022/06/03 01:01:09;;;;;;;;;;;15.00;99.90;;;;;;5009547;28;20061;-64
2022/06/03 01:03:53;;;;;;;3.38;3.03;;;15.00;99.90;;;;;;5048370;28;19963;-64
2022/06/03 01:06:39;;;;;;;5.82;3.17;;;15.00;99.90;;;;;;5058546;28;20449;-64
2022/06/03 01:09:24;;;;;;;6.57;3.55;;;14.90;99.90;;;;;;5064264;28;20078;-64
2022/06/03 01:12:16;;;;;;;5.80;3.40;;;14.90;99.90;;;;;;5091274;28;20048;-64
2022/06/03 01:15:02;;;;;;;6.82;3.95;;;14.90;99.90;;;;;;5090222;28;20105;-64
2022/06/03 01:17:37;;;;;;;6.00;4.20;;;14.80;99.90;;;;;;5067572;28;20028;-64
2022/06/03 01:20:36;;;;;;;6.15;3.42;;;14.80;99.90;;;;;;5051161;28;20053;-64
2022/06/03 01:23:18;;;;;;;6.75;3.60;;;14.80;99.90;;;;;;5051964;28;20045;-64
2022/06/03 01:26:22;;;;;;;8.75;3.42;;;14.80;99.90;;;;;;5071361;28;20134;-63
2022/06/03 01:29:28;;;;;;;4.35;3.35;;;14.80;99.90;;;;;;5091891;28;20097;-64
2022/06/03 01:32:36;;;;;;;8.00;3.42;;;14.70;99.90;;;;;;5091290;28;20040;-64
2022/06/03 01:35:21;;;;;;;6.88;3.35;;;14.70;99.90;;;;;;4995262;28;20086;-64
2022/06/03 01:37:56;;;;;;;4.85;3.28;;;14.70;99.90;;;;;;5051769;28;20086;-64
2022/06/03 01:40:41;;;;;;;5.88;3.40;;;14.70;99.90;;;;;;5050960;28;20116;-64
2022/06/03 01:43:40;;;;;;;3.95;2.95;;;14.70;99.90;;;;;;5055846;28;20036;-64
2022/06/03 01:46:16;;;;;;;5.72;3.00;;;14.70;99.90;;;;;;5077769;28;20049;-64
2022/06/03 01:48:56;;;;;;;4.22;3.58;;;14.80;99.90;;;;;;5091630;28;20097;-64
2022/06/03 01:51:39;;;;;;;5.80;2.80;;;14.60;99.90;;;;;;5077747;28;20040;-64
2022/06/03 01:54:18;;;;;;;5.03;2.67;;;14.50;99.90;;;;;;5072435;28;20037;-64
2022/06/03 01:57:23;;;;;;;6.15;2.70;;;14.50;99.90;;;;;;5071171;28;20052;-64
2022/06/03 01:59:53;;;;;;;6.88;3.17;;;14.50;99.90;;;;;;5039344;28;20055;-64
2022/06/03 02:02:47;;;;;;;4.72;3.17;;;14.50;99.90;;;;;;5080426;28;20102;-64
2022/06/03 02:05:39;;;;;;;3.88;3.20;;;14.50;99.90;;;;;;5075307;28;20489;-64
2022/06/03 02:08:24;;;;;;;3.88;2.95;;;14.40;99.90;;;;;;5079033;28;20051;-64
2022/06/03 02:11:18;;;;;;;5.95;3.00;;;14.30;99.90;;;;;;5086411;28;20044;-64
2022/06/03 02:14:10;;;;;;;3.30;3.00;;;14.30;99.90;;;;;;5095260;28;20036;-64
2022/06/03 02:16:58;;;;;;;5.88;3.08;;;14.40;99.90;;;;;;5092750;28;20040;-64
2022/06/03 02:20:00;;;;;;;3.67;3.07;;;14.40;99.90;;;;;;5074949;28;20040;-63
2022/06/03 02:23:06;;;;;;;6.28;3.90;;;14.40;99.90;;;;;;5077149;28;20112;-64
2022/06/03 02:25:53;;;;;;;6.60;3.38;;;14.40;99.90;;;;;;5087530;28;20037;-64
2022/06/03 02:28:40;;;;;;;6.13;3.70;;;14.40;99.90;;;;;;5079538;28;20102;-64
2022/06/03 02:31:25;;;;;;;4.60;3.65;;;14.30;99.90;;;;;;5094304;28;20040;-64
2022/06/03 02:34:23;;;;;;;5.18;3.60;;;14.30;99.90;;;;;;5087498;28;20394;-64
2022/06/03 02:37:23;;;;;;;7.90;4.27;;;14.30;99.90;;;;;;5075630;28;20040;-64
2022/06/03 02:40:19;;;;;;;5.90;3.70;;;14.20;99.90;;;;;;5094713;28;20040;-64
2022/06/03 02:43:23;;;;;;;5.10;3.97;;;14.20;99.90;;;;;;5061116;28;20114;-64
2022/06/03 02:46:06;;;;;;;5.85;4.30;;;14.10;99.90;;;;;;5074221;28;20041;-64
2022/06/03 02:48:51;;;;;;;7.78;4.10;;;14.10;99.90;;;;;;5074026;28;20044;-64
2022/06/03 02:51:24;;;;;;;10.88;4.00;;;14.10;99.90;;;;;;5073990;28;20037;-64
2022/06/03 02:54:25;;;;;;;6.05;3.78;;;14.10;99.90;;;;;;5094418;28;20480;-64
2022/06/03 02:57:11;;;;;;;7.15;4.22;;;14.10;99.90;;;;;;5081791;28;20043;-64
2022/06/03 02:59:56;;;;;;;6.95;4.28;;;14.00;99.90;;;;;;5074060;28;20040;-64
2022/06/03 03:02:25;;;;;;;7.35;4.60;;;13.50;99.90;;;;;;5094360;28;20036;-63
2022/06/03 03:05:30;;;;;;;6.05;3.88;;;14.00;99.90;;;;;;5094330;28;20087;-64
2022/06/03 03:08:34;;;;;;;8.30;4.43;;;14.00;99.90;;;;;;5082092;28;20052;-64
2022/06/03 03:11:29;;;;;;;5.22;4.07;;;14.00;99.90;;;;;;5072664;28;20063;-64
2022/06/03 03:14:15;;;;;;;9.55;4.70;;;13.90;99.90;;;;;;5073436;28;20052;-64
2022/06/03 03:17:13;;;;;;;7.22;4.95;;;13.90;99.90;;;;;;5083412;28;20504;-64
2022/06/03 03:19:45;;;;;;;5.50;4.18;;;13.90;99.90;;;;;;5094153;28;20036;-64
2022/06/03 03:22:51;;;;;;;7.03;3.70;;;13.90;99.90;;;;;;5089876;28;20044;-63
2022/06/03 03:25:18;;;;;;;5.10;3.88;;;13.80;99.90;;;;;;5076617;28;20067;-64
2022/06/03 03:27:54;;;;;;;4.25;3.70;;;13.90;99.90;;;;;;5073766;28;20570;-63
2022/06/03 03:30:49;;;;;;;5.28;4.25;;;13.90;99.90;;;;;;5073170;28;20056;-64
2022/06/03 03:33:35;;;;;;;8.48;3.88;;;13.90;99.90;;;;;;5072984;28;20045;-64
2022/06/03 03:36:24;;;;;;;4.65;3.75;;;13.90;99.90;;;;;;5053622;28;20532;-64
2022/06/03 03:39:12;;;;;;;4.78;3.67;;;13.90;99.90;;;;;;5053532;28;20060;-64
2022/06/03 03:42:06;;;;;;;;;;;13.90;99.90;;;;;;5060565;28;20052;-64
2022/06/03 03:44:47;;;;;;;7.07;3.60;;;14.00;99.90;;;;;;5041630;28;19924;-64
2022/06/03 03:47:41;;;;;;;5.47;4.10;;;14.00;99.90;;;;;;5073536;28;20037;-64
2022/06/03 03:50:33;;;;;;;5.05;3.53;;;14.00;99.90;;;;;;5073214;28;20377;-64
2022/06/03 03:53:29;;;;;;;4.97;4.38;;;14.00;99.90;;;;;;5065657;28;20052;-63
2022/06/03 03:56:19;;;;;;;6.97;3.90;;;14.00;99.90;;;;;;5073073;28;20045;-64
2022/06/03 03:59:05;;;;;;;6.38;4.40;;;14.00;99.90;;;;;;5093691;28;20040;-64
2022/06/03 04:02:10;;;;;;;7.70;4.00;;;14.10;99.90;;;;;;5082308;28;20067;-64
2022/06/03 04:05:17;;;;;;;8.32;4.10;;;14.10;99.90;;;;;;5087537;28;20040;-64
2022/06/03 04:08:28;;;;;;;8.45;4.00;;;14.10;99.90;;;;;;5093296;28;20511;-64
2022/06/03 04:11:31;;;;;;;8.35;3.67;;;14.10;99.90;;;;;;5062389;28;20048;-63
2022/06/03 04:14:22;;;;;;;23.27;4.18;;;14.10;99.90;;;;;;5052784;28;20041;-64
2022/06/03 04:17:24;;;;;;;6.75;3.78;;;14.10;99.90;;;;;;5054529;28;20642;-64
2022/06/03 04:20:20;;;;;;;7.63;4.47;;;14.10;99.90;;;;;;5071998;28;20048;-63
2022/06/03 04:23:14;;;;;;;7.03;4.22;;;14.10;99.90;;;;;;5090920;28;20102;-64
2022/06/03 04:26:14;;;;;;;7.05;4.60;;;14.20;99.90;;;;;;5086982;28;20048;-64
2022/06/03 04:28:54;;;;;;;5.88;4.35;;;14.20;99.90;;;;;;5072719;28;20045;-64
2022/06/03 04:31:38;;;;;;;6.40;4.38;;;14.30;99.90;;;;;;5083865;28;20043;-64
2022/06/03 04:34:22;;;;;;;6.53;4.60;;;14.30;99.90;;;;;;5092616;28;20036;-64
2022/06/03 04:36:51;;;;;;;5.90;4.38;;;14.40;99.90;;;;;;5076164;28;20512;-64
2022/06/03 04:39:38;;;;;;;5.90;3.92;;;14.50;99.90;;;;;;5086625;28;20048;-64
2022/06/03 04:42:26;;;;;;;7.95;3.97;;;14.60;99.90;;;;;;5092391;28;20515;-64
2022/06/03 04:45:17;;;;;;;6.40;3.38;;;14.70;99.90;;;;;;5087226;28;20440;-64
2022/06/03 04:48:31;;;;;;;5.10;3.78;;;14.80;99.90;;;;;;5078484;28;20044;-64
2022/06/03 04:51:10;;;;;;;5.30;3.67;;;14.90;99.90;;;;;;5071637;28;20118;-64
2022/06/03 04:53:58;;;;;;;4.40;3.13;;;15.00;99.90;;;;;;5079201;28;20036;-64
2022/06/03 04:56:27;;;;;;;4.45;3.63;;;15.10;99.90;;;;;;5075042;28;20048;-64
2022/06/03 04:59:19;;;;;;;4.82;3.88;;;15.20;99.90;;;;;;5062286;28;20049;-64
2022/06/03 05:02:32;;;;;;;4.03;3.10;;;15.10;99.90;;;;;;5069788;28;20102;-64
2022/06/03 05:05:48;;;;;;;5.78;4.13;;;15.10;99.90;;;;;;5075724;28;20043;-64
2022/06/03 05:08:17;;;;;;;10.05;4.45;;;15.10;99.90;;;;;;5071683;28;20051;-64
2022/06/03 05:11:02;;;;;;;4.10;3.42;;;15.10;99.90;;;;;;5079999;28;20087;-64
2022/06/03 05:14:03;;;;;;;5.18;3.97;;;15.10;99.90;;;;;;5092008;28;20044;-64
2022/06/03 05:17:01;;;;;;;6.90;3.55;;;15.10;99.90;;;;;;5090550;28;20036;-64
2022/06/03 05:19:42;;;;;;;5.97;3.47;;;15.20;99.90;;;;;;5071429;28;20064;-64
2022/06/03 05:22:52;;;;;;;4.90;3.80;;;15.30;99.90;;;;;;5071090;28;20044;-64
2022/06/03 05:25:45;;;;;;;4.50;3.50;;;15.40;99.90;;;;;;5071060;28;20401;-64
2022/06/03 05:28:49;;;;;;;8.45;3.90;;;15.40;99.90;;;;;;5065185;28;20042;-64
2022/06/03 05:31:49;;;;;;;4.72;3.63;;;15.50;99.90;;;;;;5063908;28;20029;-63
2022/06/03 05:34:35;;;;;;;6.97;4.07;;;15.50;99.90;;;;;;5056850;28;20107;-64
2022/06/03 05:37:05;;;;;;;5.35;3.85;;;15.50;99.90;;;;;;5066131;28;20033;-64
2022/06/03 05:39:57;;;;;;;5.68;3.30;;;15.60;99.90;;;;;;5068510;28;20451;-63
2022/06/03 05:42:41;;;;;;;4.75;3.70;;;15.70;99.90;;;;;;5068376;28;20048;-64
2022/06/03 05:45:16;;;;;;;9.45;4.28;;;15.90;99.90;;;;;;5068864;28;20040;-64
2022/06/03 05:48:10;;;;;;;10.60;4.03;;;16.00;99.90;;;;;;5073045;28;20041;-64
2022/06/03 05:51:13;;;;;;;6.68;3.53;;;16.20;99.90;;;;;;5071061;28;20052;-64
2022/06/03 05:53:58;;;;;;;6.47;3.45;;;16.40;99.90;;;;;;5069093;28;20390;-64
2022/06/03 05:56:59;;;;;;;5.35;3.05;;;16.50;99.90;;;;;;5077341;28;20496;-64
2022/06/03 05:59:48;;;;;;;5.22;3.50;;;16.70;99.90;;;;;;5082553;28;20048;-63
2022/06/03 06:02:23;;;;;;;7.57;3.78;;;16.70;99.90;;;;;;5069420;28;20041;-63
2022/06/03 06:05:13;;;;;;;5.38;3.67;;;16.80;99.90;;;;;;5070155;28;20041;-64
2022/06/03 06:07:50;;;;;;;4.45;3.00;;;16.90;99.90;;;;;;5068636;28;20504;-63
2022/06/03 06:10:17;;;;;;;8.50;3.30;;;17.10;99.90;;;;;;5081572;22;20098;-68
2022/06/03 06:13:05;;;;;;;5.90;3.13;;;17.10;99.90;;;;;;5069482;28;20056;-68
2022/06/03 06:15:39;;;;;;;;;;;17.20;99.90;;;;;;5071094;28;20049;-68
2022/06/03 06:18:12;;;;;;;3.55;2.83;;;17.20;99.90;;;;;;5070995;28;19974;-69
2022/06/03 06:20:58;;;;;;;3.67;3.08;;;17.30;99.90;;;;;;5062388;28;20054;-68
2022/06/03 06:23:50;;;;;;;6.20;3.28;;;17.40;99.90;;;;;;5055318;28;20045;-68
2022/06/03 06:26:42;;;;;;;5.20;3.30;;;17.60;99.90;;;;;;5051064;28;20053;-69
2022/06/03 06:29:42;;;;;;;3.78;2.80;;;17.80;99.90;;;;;;5058227;28;20052;-69
2022/06/03 06:32:34;;;;;;;4.15;2.92;;;17.90;99.90;;;;;;5042795;28;20041;-69
2022/06/03 06:35:32;;;;;;;3.53;3.03;;;18.00;99.90;;;;;;5050765;28;20045;-69
2022/06/03 06:38:28;;;;;;;7.97;3.10;;;18.10;99.90;;;;;;5043464;28;20540;-68
2022/06/03 06:41:10;;;;;;;3.85;3.10;;;18.10;99.90;;;;;;5065729;28;20107;-69
2022/06/03 06:44:08;;;;;;;5.47;3.70;;;18.10;99.90;;;;;;5050905;28;20068;-68
2022/06/03 06:46:38;;;;;;;4.95;3.72;;;18.20;99.90;;;;;;5052687;28;20056;-68
2022/06/03 06:49:19;;;;;;;4.95;3.50;;;18.30;99.90;;;;;;5063395;28;20037;-68
2022/06/03 06:52:07;;;;;;;8.18;3.17;;;18.50;99.90;;;;;;5049417;28;20107;-69
2022/06/03 06:54:54;;;;;;;6.88;3.28;;;18.70;99.90;;;;;;5044729;28;20076;-69
2022/06/03 06:57:33;;;;;;;5.97;2.90;;;18.80;99.90;;;;;;5033992;28;20468;-69
2022/06/03 07:00:06;;;;;;;3.85;3.20;;;18.90;99.90;;;;;;5069363;28;20033;-68
2022/06/03 07:02:37;;;;;;;4.60;3.30;;;19.00;99.90;;;;;;5070912;28;20500;-69
2022/06/03 07:05:20;;;;;;;6.00;3.15;;;19.10;99.90;;;;;;5073042;28;20060;-69
2022/06/03 07:08:03;;;;;;;3.85;3.05;;;19.10;99.90;;;;;;5050055;28;20045;-67
2022/06/03 07:11:00;;;;;;;4.13;2.95;;;19.20;99.90;;;;;;5042316;28;20391;-69
2022/06/03 07:13:45;;;;;;;3.80;3.00;;;19.30;99.90;;;;;;5034462;28;20042;-68
2022/06/03 07:22:13;;;;;;;4.35;3.30;;;19.80;99.90;;;;;;5041773;28;20049;-69
2022/06/03 07:25:00;;;;;;;5.00;3.35;;;19.90;99.90;;;;;;5069049;28;20048;-68
2022/06/03 07:27:35;;;;;;;9.20;3.17;;;20.10;99.90;;;;;;5069696;28;20408;-68
2022/06/03 07:30:12;;;;;;;7.78;3.38;;;20.10;99.90;;;;;;5073387;28;20283;-68
2022/06/03 07:33:03;;;;;;;11.93;3.43;;;20.20;99.90;;;;;;5056982;28;20049;-69
2022/06/03 07:35:53;;;;;;;3.88;2.78;;;20.40;99.90;;;;;;5064855;28;20056;-68
2022/06/03 07:38:50;;;;;;;3.35;2.75;;;20.60;99.90;;;;;;5073858;28;20064;-68
2022/06/03 07:41:19;;;;;;;4.88;2.40;;;20.80;99.90;;;;;;5069461;28;20032;-70
2022/06/03 07:43:49;;;;;;;3.45;2.80;;;20.90;99.90;;;;;;5063285;28;20103;-69
2022/06/03 07:46:43;;;;;;;8.07;3.13;;;21.00;99.90;;;;;;5073494;28;20051;-69
2022/06/03 07:49:11;;;;;;;3.40;2.67;;;21.10;99.90;;;;;;5073479;28;20516;-67
2022/06/03 07:51:42;;;;;;;5.07;2.92;;;21.20;99.90;;;;;;5055577;28;20442;-68
2022/06/03 07:54:34;;;;;;;4.22;2.53;;;21.20;99.90;;;;;;5059855;28;20045;-69
2022/06/03 07:57:10;;;;;;;5.40;2.53;;;21.40;99.90;;;;;;5052810;28;20445;-68
2022/06/03 07:59:40;;;;;;;3.78;2.78;;;21.40;99.90;;;;;;5054766;28;20390;-70
2022/06/03 08:02:19;;;;;;;4.97;2.63;;;21.40;99.90;;;;;;5043660;28;20044;-68
2022/06/03 08:04:49;;;;;;;3.97;2.85;;;21.60;99.90;;;;;;5043421;28;20108;-69
2022/06/03 08:13:03;;;;;;;3.20;2.90;;;21.70;99.90;;;;;;5053274;28;20040;-69
2022/06/03 08:15:42;;;;;;;4.07;2.90;;;21.90;99.90;;;;;;5052585;28;20048;-69
2022/06/03 08:18:16;;;;;;;3.90;3.10;;;22.00;99.90;;;;;;5052118;28;20102;-68
2022/06/03 08:20:50;;;;;;;3.40;3.00;;;22.00;99.90;;;;;;5060837;28;20398;-69
2022/06/03 08:23:18;;;;;;;8.40;3.53;;;22.20;99.90;;;;;;5066683;28;20424;-68
2022/06/03 08:25:49;;;;;;;6.15;3.25;;;22.30;99.90;;;;;;5072179;28;20063;-68
2022/06/03 08:28:21;;;;;;;4.47;3.42;;;22.30;99.90;;;;;;5071172;28;20048;-69
2022/06/03 08:30:50;;;;;;;4.22;3.38;;;22.30;99.90;;;;;;5063522;28;20037;-68
2022/06/03 08:33:26;;;;;;;3.67;3.15;;;22.40;99.90;;;;;;5072355;28;20504;-69
2022/06/03 08:35:53;;;;;;;4.32;3.47;;;22.70;99.90;;;;;;5072115;28;20448;-69
2022/06/03 08:38:26;;;;;;;4.45;2.85;;;23.00;99.90;;;;;;5070687;28;20545;-69
2022/06/03 08:41:33;;;;;;;4.47;3.30;;;23.10;99.90;;;;;;5063046;28;20040;-68
2022/06/03 08:44:29;;;;;;;3.70;3.40;;;23.10;99.90;;;;;;5072096;28;20044;-69
2022/06/03 08:47:00;;;;;;;5.90;3.35;;;23.20;99.90;;;;;;5070592;28;20053;-69
2022/06/03 08:49:55;;;;;;;3.95;3.40;;;23.30;99.90;;;;;;5064447;28;20033;-69
2022/06/03 08:52:49;;;;;;;4.80;3.40;;;23.40;99.90;;;;;;5031997;28;20038;-70
2022/06/03 08:55:26;;;;;;;3.65;3.30;;;23.60;99.90;;;;;;5031844;28;20057;-69
2022/06/03 08:57:59;;;;;;;6.45;3.63;;;23.60;99.90;;;;;;5059062;28;20041;-68
2022/06/03 09:00:35;;;;;;;5.40;3.40;;;23.80;99.90;;;;;;5067085;28;20051;-68
2022/06/03 09:03:12;;;;;;;5.45;3.50;;;23.80;99.90;;;;;;5071594;28;20127;-68
2022/06/03 09:05:48;;;;;;;3.70;3.40;;;23.80;99.90;;;;;;5070287;28;20123;-69
2022/06/03 09:08:24;;;;;;;4.90;4.50;;;23.90;99.90;;;;;;5063138;28;20055;-69
2022/06/03 09:11:20;;;;;;;4.15;3.70;;;24.00;99.90;;;;;;5071229;28;20044;-69
2022/06/03 09:14:00;;;;;;;6.43;3.60;;;23.90;99.90;;;;;;5048424;28;20049;-69
2022/06/03 09:16:29;;;;;;;6.22;3.63;;;24.00;99.90;;;;;;5046189;28;20425;-69
2022/06/03 09:19:05;;;;;;;4.68;4.28;;;24.20;99.90;;;;;;5039770;28;20041;-68
2022/06/03 09:21:34;;;;;;;5.30;4.15;;;24.20;99.90;;;;;;5040895;28;20064;-68
2022/06/03 09:24:15;;;;;;;3.70;3.40;;;24.30;99.90;;;;;;5046537;28;20040;-69
2022/06/03 09:26:46;;;;;;;4.28;3.80;;;24.50;99.90;;;;;;5061529;28;20443;-69
2022/06/03 09:29:15;;;;;;;6.00;3.72;;;24.70;99.90;;;;;;5071561;28;20041;-68
2022/06/03 09:31:48;;;;;;;5.22;4.15;;;24.70;99.90;;;;;;5065902;28;20049;-69
2022/06/03 09:34:18;;;;;;;5.28;4.00;;;24.80;99.90;;;;;;5058300;28;20254;-71
2022/06/03 09:36:45;;;;;;;4.30;3.90;;;24.90;99.90;;;;;;5042046;28;20045;-69
2022/06/03 09:39:14;;;;;;;;;;;24.90;99.90;;;;;;5043611;28;20037;-69
2022/06/03 09:41:45;;;;;;;4.72;3.95;;;25.00;99.90;;;;;;5060263;28;19925;-70
2022/06/03 09:44:18;;;;;;;4.10;3.70;;;25.10;99.90;;;;;;5071466;28;20154;-69
2022/06/03 09:46:45;;;;;;;5.63;3.85;;;25.30;99.90;;;;;;5071406;28;20102;-69
2022/06/03 09:49:18;;;;;;;4.15;3.33;;;25.60;99.90;;;;;;5064801;28;20037;-70
2022/06/03 09:52:00;;;;;;;4.85;3.67;;;25.60;99.90;;;;;;5060638;28;20052;-71
2022/06/03 09:54:29;;;;;;;7.35;4.47;;;25.80;99.90;;;;;;5071293;28;20053;-69
2022/06/03 09:57:27;;;;;;;4.00;3.60;;;26.00;99.90;;;;;;5053380;28;20567;-70
2022/06/03 10:00:08;;;;;;;4.70;4.22;;;25.80;99.90;;;;;;5061496;28;20040;-70
2022/06/03 10:02:43;;;;;;;6.70;3.75;;;26.00;99.90;;;;;;5071964;28;20585;-70
2022/06/03 10:05:15;;;;;;;4.15;3.75;;;26.10;99.90;;;;;;5071233;28;20071;-70
2022/06/03 10:07:47;;;;;;;7.78;3.83;;;26.10;99.90;;;;;;5069748;28;20120;-70
2022/06/03 10:13:03;;;;;;;6.10;3.60;;;26.20;99.90;;;;;;5071253;28;20509;-70
2022/06/03 10:15:42;;;;;;;5.13;3.42;;;26.30;99.90;;;;;;5067078;28;20040;-70
2022/06/03 10:18:21;;;;;;;4.28;3.33;;;26.40;99.90;;;;;;5064322;28;20044;-70
2022/06/03 10:20:49;;;;;;;5.57;3.75;;;26.60;99.90;;;;;;5071567;28;20472;-72
2022/06/03 10:23:23;;;;;;;4.10;3.65;;;26.50;99.90;;;;;;5073843;28;20056;-71
2022/06/03 10:26:34;;;;;;;4.35;3.72;;;26.40;99.90;;;;;;5061075;28;20103;-71
2022/06/03 10:29:13;;;;;;;4.00;3.58;;;26.40;99.90;;;;;;5045343;28;20033;-71
2022/06/03 10:31:59;;;;;;;3.75;3.42;;;26.70;99.90;;;;;;5043299;28;20049;-71
2022/06/03 10:34:35;;;;;;;4.65;3.97;;;26.80;99.90;;;;;;5047589;28;20049;-71
2022/06/03 10:37:08;;;;;;;5.05;3.28;;;26.80;99.90;;;;;;5044342;28;20045;-71
2022/06/03 10:39:34;;;;;;;3.30;3.00;;;26.80;99.90;;;;;;5043472;28;20037;-71
2022/06/03 10:42:02;;;;;;;4.50;3.35;;;26.70;99.90;;;;;;5042740;28;20049;-71
2022/06/03 10:44:38;;;;;;;4.32;3.30;;;26.80;99.90;;;;;;5050689;28;20037;-71
2022/06/03 10:47:05;;;;;;;3.63;3.20;;;26.80;99.90;;;;;;5044900;28;20470;-71
2022/06/03 10:49:35;;;;;;;;;;;26.80;99.90;;;;;;5049163;28;20053;-71
2022/06/03 11:03:27;;;;;;;3.03;2.83;;;27.50;99.90;;;;;;5055253;28;20032;-72
2022/06/03 11:05:54;;;;;;;3.85;2.75;;;27.60;99.90;;;;;;5074321;28;20052;-73
2022/06/03 11:08:21;;;;;;;2.83;2.63;;;27.70;99.90;;;;;;5073986;28;20040;-72
2022/06/03 11:10:56;;;;;;;6.03;2.97;;;28.00;99.90;;;;;;5069804;28;20519;-71
2022/06/03 11:13:39;;;;;;;5.97;3.22;;;28.10;99.90;;;;;;5069402;28;20047;-72
2022/06/03 11:16:24;;;;;;;3.33;2.70;;;28.20;99.90;;;;;;5073919;28;20051;-72
2022/06/03 11:18:52;;;;;;;6.85;2.55;;;28.20;99.90;;;;;;5065687;28;20041;-72
2022/06/03 11:21:29;;;;;;;5.68;3.08;;;28.10;99.90;;;;;;5064957;28;20177;-73
2022/06/03 11:23:58;;;;;;;6.00;2.97;;;28.10;99.90;;;;;;5074028;28;20041;-72
2022/06/03 11:26:30;;;;;;;4.47;2.72;;;28.20;99.90;;;;;;5072767;28;20048;-73
2022/06/03 11:29:15;;;;;;;4.78;2.95;;;28.60;99.90;;;;;;5065130;28;20044;-73
2022/06/03 11:31:45;;;;;;;4.15;3.22;;;28.70;99.90;;;;;;5073059;28;20048;-74
2022/06/03 11:34:22;;;;;;;3.58;3.28;;;28.70;99.90;;;;;;5073024;28;20044;-74
2022/06/03 11:37:17;;;;;;;3.55;3.25;;;28.60;99.90;;;;;;5069859;28;20040;-73
2022/06/03 11:39:53;;;;;;;8.10;3.60;;;28.50;99.90;;;;;;5064037;28;20111;-73
2022/06/03 11:42:35;;;;;;;5.25;3.42;;;28.20;99.90;;;;;;5073671;28;20070;-75
2022/06/03 11:45:11;;;;;;;4.80;3.50;;;28.20;99.90;;;;;;5072048;28;20055;-74
2022/06/03 11:47:40;;;;;;;4.28;3.40;;;28.00;99.90;;;;;;5064781;28;20053;-74
2022/06/03 11:50:09;;;;;;;6.90;3.70;;;28.00;99.90;;;;;;5073066;28;20044;-73
2022/06/03 11:52:36;;;;;;;6.32;3.22;;;28.00;99.90;;;;;;5073351;28;20059;-73
2022/06/03 11:55:04;;;;;;;6.03;3.80;;;28.00;99.90;;;;;;5063891;28;20037;-73
2022/06/03 11:57:31;;;;;;;5.47;3.42;;;28.10;99.90;;;;;;5068064;28;20040;-74
2022/06/03 12:00:11;;;;;;;7.90;3.92;;;28.00;99.90;;;;;;5072627;28;20071;-73
2022/06/03 12:03:09;;;;;;;6.43;3.70;;;28.00;99.90;;;;;;5073448;28;20094;-74
2022/06/03 12:05:45;;;;;;;4.38;3.53;;;28.00;99.90;;;;;;5058941;28;20099;-73
2022/06/03 12:08:23;;;;;;;5.68;3.47;;;28.10;99.90;;;;;;5073093;28;20067;-74
2022/06/03 12:10:57;;;;;;;6.22;3.92;;;28.00;99.90;;;;;;5085651;22;20113;-65
2022/06/03 12:13:30;;;;;;;4.85;3.70;;;28.00;99.90;;;;;;5066529;28;20118;-65
2022/06/03 12:16:17;;;;;;;5.75;3.60;;;27.90;99.90;;;;;;5041220;28;20056;-65
2022/06/03 12:19:01;;;;;;;6.30;3.40;;;27.80;99.90;;;;;;5031649;28;20073;-65
2022/06/03 12:21:29;;;;;;;3.83;3.38;;;27.80;99.90;;;;;;5040665;28;20037;-65
2022/06/03 12:24:23;;;;;;;9.80;3.83;;;27.70;99.90;;;;;;5044229;28;20103;-65
2022/06/03 12:26:51;;;;;;;5.57;3.30;;;27.60;99.90;;;;;;5052826;28;20075;-65
2022/06/03 12:29:28;;;;;;;7.00;3.50;;;27.50;99.90;;;;;;5051146;28;20047;-65
2022/06/03 12:32:07;;;;;;;4.50;3.47;;;27.50;99.90;;;;;;5043960;28;20091;-65
2022/06/03 12:34:36;;;;;;;3.95;3.05;;;27.30;99.90;;;;;;5052626;28;20052;-65
2022/06/03 12:37:26;;;;;;;7.95;3.42;;;27.20;99.90;;;;;;5048801;28;20477;-65
2022/06/03 12:40:22;;;;;;;4.30;3.90;;;27.10;99.90;;;;;;5040557;28;20054;-65
2022/06/03 12:42:49;;;;;;;8.15;3.53;;;26.90;99.90;;;;;;5032612;28;20095;-65
2022/06/03 12:45:29;;;;;;;4.50;3.50;;;26.80;99.90;;;;;;5032170;28;20556;-65
2022/06/03 12:47:56;;;;;;;6.60;3.90;;;26.90;99.90;;;;;;5037452;28;20049;-65
2022/06/03 12:50:32;;;;;;;5.22;3.92;;;26.80;99.90;;;;;;5043623;28;20112;-65
2022/06/03 12:53:20;;;;;;;7.80;3.67;;;26.80;99.90;;;;;;5052568;28;20052;-65
2022/06/03 12:55:55;;;;;;;4.72;3.40;;;26.80;99.90;;;;;;5052272;28;20455;-65
2022/06/03 12:58:35;;;;;;;8.82;4.13;;;26.80;99.90;;;;;;5051207;28;20044;-65
2022/06/03 13:01:05;;;;;;;5.40;3.63;;;26.80;99.90;;;;;;5044211;28;20116;-65
2022/06/03 13:03:32;;;;;;;7.35;4.00;;;26.80;99.90;;;;;;5052060;28;20524;-65
2022/06/03 13:06:03;;;;;;;6.18;3.80;;;26.80;99.90;;;;;;5039547;28;20077;-65
2022/06/03 13:11:31;;;;;;;5.30;3.40;;;26.60;99.90;;;;;;5043265;28;20486;-66
2022/06/03 13:13:57;;;;;;;6.38;3.80;;;26.40;99.90;;;;;;5039736;28;20059;-65
2022/06/03 13:16:37;;;;;;;4.55;3.20;;;26.30;99.90;;;;;;5041397;28;20060;-65
2022/06/03 13:19:17;;;;;;;3.97;2.80;;;26.20;99.90;;;;;;5039525;28;20552;-65
2022/06/03 13:22:02;;;;;;;6.40;3.50;;;26.20;99.90;;;;;;5038157;28;20095;-66
2022/06/03 13:24:39;;;;;;;4.10;3.53;;;26.30;99.90;;;;;;5041791;28;20042;-65
2022/06/03 13:27:20;;;;;;;5.60;3.45;;;26.30;99.90;;;;;;5051212;28;20041;-66
2022/06/03 13:29:51;;;;;;;5.45;3.20;;;26.20;99.90;;;;;;5041655;28;20056;-66
2022/06/03 13:32:56;;;;;;;2.90;2.70;;;26.20;99.90;;;;;;5051144;28;20053;-66
2022/06/03 13:35:45;;;;;;;7.82;3.10;;;26.00;99.90;;;;;;5051563;28;20045;-66
2022/06/03 13:38:24;;;;;;;5.25;3.22;;;25.90;99.90;;;;;;5043593;28;20049;-65
2022/06/03 13:44:18;;;;;;;5.10;2.88;;;25.70;99.90;;;;;;5037188;28;20405;-66
2022/06/03 13:46:49;;;;;;;5.10;3.22;;;25.60;99.90;;;;;;5045280;28;20044;-66
2022/06/03 13:49:24;;;;;;;5.10;3.20;;;25.50;99.90;;;;;;5050546;28;20044;-65
2022/06/03 13:52:02;;;;;;;5.68;2.97;;;25.50;99.90;;;;;;5042648;28;20045;-65
2022/06/03 13:54:33;;;;;;;6.63;3.53;;;25.50;99.90;;;;;;5051455;28;20044;-65
2022/06/03 13:57:17;;;;;;;5.55;3.10;;;25.50;99.90;;;;;;5042588;28;20044;-66
2022/06/03 13:59:45;;;;;;;6.28;3.55;;;25.50;99.90;;;;;;5039519;28;20044;-66
2022/06/03 14:02:19;;;;;;;4.05;3.30;;;25.60;99.90;;;;;;5031275;28;20375;-66
2022/06/03 14:05:03;;;;;;;5.50;3.22;;;25.60;99.90;;;;;;5034460;28;20052;-66
2022/06/03 14:08:10;;;;;;;3.90;2.78;;;25.60;99.90;;;;;;5042894;28;20044;-66
2022/06/03 14:11:04;;;;;;;7.18;3.75;;;25.60;99.90;;;;;;5039666;28;20524;-66
2022/06/03 14:13:42;;;;;;;4.45;3.05;;;25.60;99.90;;;;;;5041752;28;20044;-66
2022/06/03 14:16:33;;;;;;;4.50;3.03;;;25.50;99.90;;;;;;5041857;28;20098;-65
2022/06/03 14:19:09;;;;;;;6.13;3.42;;;25.40;99.90;;;;;;5031209;28;20049;-66
2022/06/03 14:21:56;;;;;;;5.35;3.22;;;25.40;99.90;;;;;;5030246;28;20045;-65
2022/06/03 14:24:35;;;;;;;8.15;3.35;;;25.30;99.90;;;;;;5049035;28;20098;-66
2022/06/03 14:27:13;;;;;;;5.75;3.30;;;25.20;99.90;;;;;;5042195;28;20041;-65
2022/06/03 14:29:51;;;;;;;3.47;3.17;;;25.10;99.90;;;;;;5051085;28;20040;-65
2022/06/03 14:32:25;;;;;;;8.73;3.85;;;25.10;99.90;;;;;;5050210;28;20044;-65
2022/06/03 14:35:01;;;;;;;3.88;3.58;;;25.10;99.90;;;;;;5042697;28;20390;-65
2022/06/03 14:37:39;;;;;;;4.10;3.35;;;25.00;99.90;;;;;;5050955;28;20056;-66
2022/06/03 14:40:13;;;;;;;3.88;3.10;;;25.00;99.90;;;;;;5050577;28;20041;-66
2022/06/03 14:42:41;;;;;;;5.20;3.20;;;25.00;99.90;;;;;;5040785;28;20513;-66